Tina-c — 2APY2 — position and weather

sailwx.info

Track history (hours):
 
Tides and Currents Weather Stations Pressure Air Temp Water Temp Dewpoint Dewpoint Depression Visibility Wind Speed Wind Dir Waves Ship Positions

Tina-c

Last reported at 2017-Jun-22 20:22 UTC. Time now 2017-Jun-22 20:38 UTC.
Position N 46°37' W 002°45'.

Length 99 m; draft 4.9 m.

Type: Cargo ship. MMSI: 235061987.

Date/timePositionNaut miles runAvg speedWind from/ knotsBaromVisibWave heightAir tempDewpointWater temp
2017-Jun-22 20:22N 46°37' W 002°45'510.8
2017-Jun-22 19:52N 46°40' W 002°52'410.5
2017-Jun-22 19:30N 46°42' W 002°57'510.1
2017-Jun-22 19:00N 46°44' W 003°03'510.1
2017-Jun-22 18:30N 46°47' W 003°09'510.3
2017-Jun-22 17:58N 46°50' W 003°16'710.2
2017-Jun-22 17:16N 46°54' W 003°25'310.4
2017-Jun-22 16:59N 46°55' W 003°28'610.4
2017-Jun-22 16:26N 46°58' W 003°36'410.5
2017-Jun-22 16:00N 47°01' W 003°41'510.6
2017-Jun-22 15:31N 47°03' W 003°48'510.5
2017-Jun-22 15:00N 47°06' W 003°54'610.6
2017-Jun-22 14:26N 47°09' W 004°02'1210.7
2017-Jun-22 13:21N 47°16' W 004°16'410.8
2017-Jun-22 12:59N 47°18' W 004°21'610.7
2017-Jun-22 12:28N 47°21' W 004°28'510.5
2017-Jun-22 12:00N 47°24' W 004°34'510.5
2017-Jun-22 11:30N 47°26' W 004°41'510.5
2017-Jun-22 11:01N 47°29' W 004°47'510.4
2017-Jun-22 10:30N 47°32' W 004°54'510.3
2017-Jun-22 10:01N 47°35' W 004°60'510.3
2017-Jun-22 09:30N 47°38' W 005°06'610.1
2017-Jun-22 08:52N 47°41' W 005°14'20610.4
2017-Jun-21 13:06N 50°12' W 008°47'111.2
2017-Jun-21 12:59N 50°13' W 008°49'611.0
2017-Jun-21 12:27N 50°18' W 008°55'2610.9
2017-Jun-21 10:03N 50°38' W 009°21'210.6
2017-Jun-21 09:49N 50°40' W 009°23'410.8
2017-Jun-21 09:24N 50°43' W 009°28'510.1
2017-Jun-21 08:54N 50°47' W 009°33'5 9.9
2017-Jun-21 08:26N 50°50' W 009°38'610.0
2017-Jun-21 07:50N 50°55' W 009°44'3610.8
2017-Jun-21 04:27N 51°23' W 010°21'51 8.2
2017-Jun-20 22:15N 52°13' W 010°38'1310.6
2017-Jun-20 20:59N 52°20' W 010°19'  
2017-Jun-18 16:37N 52°28' W 009°58'10 9.6
2017-Jun-18 15:35N 52°23' W 010°11'2 9.6
2017-Jun-18 15:24N 52°22' W 010°14'51 8.1
2017-Jun-18 09:10N 51°39' W 010°58'2 9.5
2017-Jun-18 08:57N 51°37' W 010°58'4 9.2
2017-Jun-18 08:30N 51°33' W 010°58'5 9.2
2017-Jun-18 08:00N 51°28' W 010°57'5 9.4
2017-Jun-18 07:27N 51°23' W 010°56'4 9.6
2017-Jun-18 07:00N 51°19' W 010°56'5 9.5
2017-Jun-18 06:30N 51°14' W 010°56'5 9.9
2017-Jun-18 05:58N 51°09' W 010°56'510.1
2017-Jun-18 05:30N 51°04' W 010°55'510.2
2017-Jun-18 05:00N 50°59' W 010°55'11010.1
2017-Jun-17 18:10N 49°09' W 010°47'2 9.7
2017-Jun-17 17:59N 49°07' W 010°47'5 9.5
2017-Jun-17 17:29N 49°03' W 010°46'  
2017-Jun-15 06:01N 40°09' W 010°02'0 8.4
2017-Jun-15 06:00N 40°09' W 010°02'4 8.3
2017-Jun-15 05:29N 40°05' W 010°01'35 8.9
2017-Jun-15 01:35N 39°30' W 009°56'12 8.8
2017-Jun-15 00:14N 39°18' W 009°55'2 9.1
2017-Jun-15 00:00N 39°16' W 009°55'4 8.8
2017-Jun-14 23:30N 39°12' W 009°54'4 8.7
2017-Jun-14 23:00N 39°07' W 009°54'5 9.3
2017-Jun-14 22:30N 39°03' W 009°53'5 9.0
2017-Jun-14 22:00N 38°58' W 009°53'4 8.9
2017-Jun-14 21:30N 38°54' W 009°52'4 8.6
2017-Jun-14 21:00N 38°50' W 009°52'4 8.8
2017-Jun-14 20:30N 38°45' W 009°51'4 8.9
2017-Jun-14 20:00N 38°41' W 009°50'4 8.8
2017-Jun-14 19:30N 38°37' W 009°49'5 9.1
2017-Jun-14 19:00N 38°32' W 009°48'5 9.2
2017-Jun-14 18:30N 38°28' W 009°46'4 8.9
2017-Jun-14 18:00N 38°23' W 009°45'4 8.8
2017-Jun-14 17:30N 38°19' W 009°44'11 8.9
2017-Jun-14 16:17N 38°08' W 009°41'5 8.8
2017-Jun-14 15:42N 38°03' W 009°39'3 8.9
2017-Jun-14 15:21N 38°00' W 009°39'12 9.0
2017-Jun-14 14:00N 37°49' W 009°35'110 8.7
2017-Jun-14 01:20N 36°27' W 008°02'3 9.7
2017-Jun-14 01:00N 36°26' W 007°59'5 9.8
2017-Jun-14 00:28N 36°24' W 007°52'5 9.9
2017-Jun-13 23:59N 36°23' W 007°47'610.1
2017-Jun-13 23:25N 36°21' W 007°40'101 9.9
2017-Jun-13 13:11N 35°58' W 005°38'2 9.9
2017-Jun-13 13:00N 35°58' W 005°36'5 9.8
2017-Jun-13 12:30N 35°59' W 005°30'5 9.1
2017-Jun-13 12:00N 36°01' W 005°25'8 1.5
2017-Jun-13 06:38N 36°09' W 005°22'0 0.0
2017-Jun-13 06:24N 36°09' W 005°22'0 0.7
2017-Jun-13 06:00N 36°09' W 005°22'3 5.6
2017-Jun-13 05:31N 36°06' W 005°22'3 5.3
2017-Jun-13 05:00N 36°05' W 005°19'2 3.6
2017-Jun-13 04:30N 36°06' W 005°16'0 0.9
2017-Jun-13 04:00N 36°06' W 005°17'0 0.6
2017-Jun-13 03:30N 36°06' W 005°17'1 1.1
2017-Jun-13 03:00N 36°07' W 005°16'4 5.9
2017-Jun-13 02:18N 36°08' W 005°11'4 5.5
2017-Jun-13 01:36N 36°04' W 005°10'1 5.6
2017-Jun-13 01:27N 36°03' W 005°10'  
Track history (hours):
 
Tides and Currents Weather Stations Pressure Air Temp Water Temp Dewpoint Dewpoint Depression Visibility Wind Speed Wind Dir Waves Ship Positions

Tina-c

Last reported at 2017-Jun-22 20:22 UTC. Time now 2017-Jun-22 20:38 UTC.
Position N 46°37' W 002°45'.

Length 99 m; draft 4.9 m.

Type: Cargo ship. MMSI: 235061987.

Date/timePositionNaut miles runAvg speedWind from/ knotsBaromVisibWave heightAir tempDewpointWater temp
2017-Jun-22 20:22N 46°37' W 002°45'510.8
2017-Jun-22 19:52N 46°40' W 002°52'410.5
2017-Jun-22 19:30N 46°42' W 002°57'510.1
2017-Jun-22 19:00N 46°44' W 003°03'510.1
2017-Jun-22 18:30N 46°47' W 003°09'510.3
2017-Jun-22 17:58N 46°50' W 003°16'710.2
2017-Jun-22 17:16N 46°54' W 003°25'310.4
2017-Jun-22 16:59N 46°55' W 003°28'610.4
2017-Jun-22 16:26N 46°58' W 003°36'410.5
2017-Jun-22 16:00N 47°01' W 003°41'510.6
2017-Jun-22 15:31N 47°03' W 003°48'510.5
2017-Jun-22 15:00N 47°06' W 003°54'610.6
2017-Jun-22 14:26N 47°09' W 004°02'1210.7
2017-Jun-22 13:21N 47°16' W 004°16'410.8
2017-Jun-22 12:59N 47°18' W 004°21'610.7
2017-Jun-22 12:28N 47°21' W 004°28'510.5
2017-Jun-22 12:00N 47°24' W 004°34'510.5
2017-Jun-22 11:30N 47°26' W 004°41'510.5
2017-Jun-22 11:01N 47°29' W 004°47'510.4
2017-Jun-22 10:30N 47°32' W 004°54'510.3
2017-Jun-22 10:01N 47°35' W 004°60'510.3
2017-Jun-22 09:30N 47°38' W 005°06'610.1
2017-Jun-22 08:52N 47°41' W 005°14'20610.4
2017-Jun-21 13:06N 50°12' W 008°47'111.2
2017-Jun-21 12:59N 50°13' W 008°49'611.0
2017-Jun-21 12:27N 50°18' W 008°55'2610.9
2017-Jun-21 10:03N 50°38' W 009°21'210.6
2017-Jun-21 09:49N 50°40' W 009°23'410.8
2017-Jun-21 09:24N 50°43' W 009°28'510.1
2017-Jun-21 08:54N 50°47' W 009°33'5 9.9
2017-Jun-21 08:26N 50°50' W 009°38'610.0
2017-Jun-21 07:50N 50°55' W 009°44'3610.8
2017-Jun-21 04:27N 51°23' W 010°21'51 8.2
2017-Jun-20 22:15N 52°13' W 010°38'1310.6
2017-Jun-20 20:59N 52°20' W 010°19'  
2017-Jun-18 16:37N 52°28' W 009°58'10 9.6
2017-Jun-18 15:35N 52°23' W 010°11'2 9.6
2017-Jun-18 15:24N 52°22' W 010°14'51 8.1
2017-Jun-18 09:10N 51°39' W 010°58'2 9.5
2017-Jun-18 08:57N 51°37' W 010°58'4 9.2
2017-Jun-18 08:30N 51°33' W 010°58'5 9.2
2017-Jun-18 08:00N 51°28' W 010°57'5 9.4
2017-Jun-18 07:27N 51°23' W 010°56'4 9.6
2017-Jun-18 07:00N 51°19' W 010°56'5 9.5
2017-Jun-18 06:30N 51°14' W 010°56'5 9.9
2017-Jun-18 05:58N 51°09' W 010°56'510.1
2017-Jun-18 05:30N 51°04' W 010°55'510.2
2017-Jun-18 05:00N 50°59' W 010°55'11010.1
2017-Jun-17 18:10N 49°09' W 010°47'2 9.7
2017-Jun-17 17:59N 49°07' W 010°47'5 9.5
2017-Jun-17 17:29N 49°03' W 010°46'  
2017-Jun-15 06:01N 40°09' W 010°02'0 8.4
2017-Jun-15 06:00N 40°09' W 010°02'4 8.3
2017-Jun-15 05:29N 40°05' W 010°01'35 8.9
2017-Jun-15 01:35N 39°30' W 009°56'12 8.8
2017-Jun-15 00:14N 39°18' W 009°55'2 9.1
2017-Jun-15 00:00N 39°16' W 009°55'4 8.8
2017-Jun-14 23:30N 39°12' W 009°54'4 8.7
2017-Jun-14 23:00N 39°07' W 009°54'5 9.3
2017-Jun-14 22:30N 39°03' W 009°53'5 9.0
2017-Jun-14 22:00N 38°58' W 009°53'4 8.9
2017-Jun-14 21:30N 38°54' W 009°52'4 8.6
2017-Jun-14 21:00N 38°50' W 009°52'4 8.8
2017-Jun-14 20:30N 38°45' W 009°51'4 8.9
2017-Jun-14 20:00N 38°41' W 009°50'4 8.8
2017-Jun-14 19:30N 38°37' W 009°49'5 9.1
2017-Jun-14 19:00N 38°32' W 009°48'5 9.2
2017-Jun-14 18:30N 38°28' W 009°46'4 8.9
2017-Jun-14 18:00N 38°23' W 009°45'4 8.8
2017-Jun-14 17:30N 38°19' W 009°44'11 8.9
2017-Jun-14 16:17N 38°08' W 009°41'5 8.8
2017-Jun-14 15:42N 38°03' W 009°39'3 8.9
2017-Jun-14 15:21N 38°00' W 009°39'12 9.0
2017-Jun-14 14:00N 37°49' W 009°35'110 8.7
2017-Jun-14 01:20N 36°27' W 008°02'3 9.7
2017-Jun-14 01:00N 36°26' W 007°59'5 9.8
2017-Jun-14 00:28N 36°24' W 007°52'5 9.9
2017-Jun-13 23:59N 36°23' W 007°47'610.1
2017-Jun-13 23:25N 36°21' W 007°40'101 9.9
2017-Jun-13 13:11N 35°58' W 005°38'2 9.9
2017-Jun-13 13:00N 35°58' W 005°36'5 9.8
2017-Jun-13 12:30N 35°59' W 005°30'5 9.1
2017-Jun-13 12:00N 36°01' W 005°25'8 1.5
2017-Jun-13 06:38N 36°09' W 005°22'0 0.0
2017-Jun-13 06:24N 36°09' W 005°22'0 0.7
2017-Jun-13 06:00N 36°09' W 005°22'3 5.6
2017-Jun-13 05:31N 36°06' W 005°22'3 5.3
2017-Jun-13 05:00N 36°05' W 005°19'2 3.6
2017-Jun-13 04:30N 36°06' W 005°16'0 0.9
2017-Jun-13 04:00N 36°06' W 005°17'0 0.6
2017-Jun-13 03:30N 36°06' W 005°17'1 1.1
2017-Jun-13 03:00N 36°07' W 005°16'4 5.9
2017-Jun-13 02:18N 36°08' W 005°11'4 5.5
2017-Jun-13 01:36N 36°04' W 005°10'1 5.6
2017-Jun-13 01:27N 36°03' W 005°10'  

Dump ship's entire track history